Time;durP1;ratioP1;P1;durP2;ratioP2;P2;SDS_P1;SDS_P2;PMS_P1;PMS_P2;Temp;Humidity;BMP_temperature;BMP_pressure;BME280_temperature;BME280_humidity;BME280_pressure;Samples;Min_cycle;Max_cycle;Signal;HPM_P1;HPM_P2
2022/07/24 00:00:36;;;;;;;18.58;10.93;;;;;;;20.90;74.47;99152.03;5093455;28;20051;-65
2022/07/24 00:03:02;;;;;;;21.30;11.23;;;;;;;20.85;74.83;99148.94;5092350;28;20526;-66
2022/07/24 00:05:28;;;;;;;21.70;11.20;;;;;;;20.83;75.31;99148.22;5095506;28;20043;-66
2022/07/24 00:07:54;;;;;;;20.05;11.00;;;;;;;20.83;75.50;99158.00;5092469;28;20036;-67
2022/07/24 00:10:20;;;;;;;23.00;11.15;;;;;;;20.77;75.74;99148.78;5092980;28;20146;-66
2022/07/24 00:12:46;;;;;;;20.42;10.48;;;;;;;20.76;76.21;99149.75;5092732;28;20127;-66
2022/07/24 00:15:12;;;;;;;19.90;10.27;;;;;;;20.54;76.41;99124.28;5092968;28;20036;-65
2022/07/24 00:17:38;;;;;;;21.75;11.45;;;;;;;20.64;76.90;99162.16;5113447;28;20039;-66
2022/07/24 00:20:05;;;;;;;21.63;11.05;;;;;;;20.58;77.47;99148.63;5113060;28;20507;-66
2022/07/24 00:22:31;;;;;;;21.17;11.52;;;;;;;20.51;77.81;99155.41;5103342;28;20040;-66
2022/07/24 00:24:57;;;;;;;20.17;11.35;;;;;;;20.46;78.33;99149.69;5091984;28;20444;-65
2022/07/24 00:27:23;;;;;;;25.50;11.25;;;;;;;20.40;78.67;99153.66;5086380;28;20127;-67
2022/07/24 00:29:48;;;;;;;18.45;10.85;;;;;;;20.34;79.12;99161.25;5091038;28;20130;-66
2022/07/24 00:32:14;;;;;;;20.42;10.90;;;;;;;20.30;79.55;99150.09;5106119;28;20118;-66
2022/07/24 00:34:40;;;;;;;21.52;11.70;;;;;;;20.24;79.87;99150.59;5092359;28;20043;-66
2022/07/24 00:37:06;;;;;;;24.63;11.32;;;;;;;20.25;80.13;99155.72;5093918;28;20036;-66
2022/07/24 00:39:32;;;;;;;20.45;10.98;;;;;;;20.24;80.25;99153.22;5092522;28;20134;-67
2022/07/24 00:41:57;;;;;;;19.02;11.77;;;;;;;20.22;80.60;99150.69;5092104;28;20040;-66
2022/07/24 00:44:23;;;;;;;16.75;11.32;;;;;;;20.21;80.78;99150.81;5092144;28;20504;-67
2022/07/24 00:46:49;;;;;;;17.40;10.80;;;;;;;20.18;80.91;99148.44;5092496;28;20036;-67
2022/07/24 00:49:18;;;;;;;19.48;11.30;;;;;;;20.06;81.07;99133.59;5092313;28;20096;-67
2022/07/24 00:51:45;;;;;;;;;;;;;;;20.18;81.07;99156.38;5092302;28;20040;-66
2022/07/24 00:54:12;;;;;;;19.02;11.02;;;;;;;19.92;81.03;99118.06;5090620;28;20379;-66
2022/07/24 00:56:40;;;;;;;15.30;10.23;;;;;;;20.12;81.27;99154.22;5106485;28;20047;-66
2022/07/24 00:59:06;;;;;;;16.23;10.45;;;;;;;20.10;81.62;99156.97;5092628;28;20044;-67
2022/07/24 01:01:32;;;;;;;18.02;11.07;;;;;;;19.96;81.78;99133.53;5095844;28;20051;-67
2022/07/24 01:03:58;;;;;;;23.65;11.00;;;;;;;20.07;82.22;99153.75;5112417;28;20525;-67
2022/07/24 01:06:24;;;;;;;20.38;11.05;;;;;;;20.06;82.30;99150.28;5112511;28;20511;-66
2022/07/24 01:08:50;;;;;;;23.63;11.23;;;;;;;20.10;82.65;99156.13;5108464;28;20512;-66
2022/07/24 01:11:16;;;;;;;18.55;11.48;;;;;;;20.09;82.67;99143.94;5091567;28;20044;-65
2022/07/24 01:13:42;;;;;;;17.60;11.20;;;;;;;20.24;82.45;99151.44;5092169;28;20039;-66
2022/07/24 01:16:09;;;;;;;19.52;11.63;;;;;;;20.28;82.24;99146.72;5095453;28;20036;-67
2022/07/24 01:18:36;;;;;;;14.75;10.65;;;;;;;20.30;82.12;99148.28;5090079;28;20055;-65
2022/07/24 01:21:03;;;;;;;20.08;12.10;;;;;;;20.31;82.29;99157.03;5091582;28;20039;-65
2022/07/24 01:23:29;;;;;;;20.52;11.80;;;;;;;20.17;82.02;99130.94;5105784;28;20507;-65
2022/07/24 01:25:55;;;;;;;23.02;11.55;;;;;;;20.40;81.80;99161.59;5108910;28;20179;-66
2022/07/24 01:28:21;;;;;;;15.85;10.88;;;;;;;20.44;81.21;99155.06;5088089;28;20032;-66
2022/07/24 01:30:48;;;;;;;18.80;10.80;;;;;;;20.48;80.73;99153.84;5091191;28;20120;-66
2022/07/24 01:33:14;;;;;;;23.40;10.80;;;;;;;20.48;80.42;99160.94;5090995;28;20129;-66
2022/07/24 01:35:41;;;;;;;19.58;10.45;;;;;;;20.41;80.04;99150.03;5091624;28;20040;-67
2022/07/24 01:38:08;;;;;;;25.05;10.90;;;;;;;20.43;80.01;99148.13;5091312;28;20525;-66
2022/07/24 01:40:34;;;;;;;18.38;11.68;;;;;;;20.36;80.29;99154.06;5090433;28;20043;-67
2022/07/24 01:43:00;;;;;;;21.45;11.50;;;;;;;20.36;80.62;99154.84;5091395;28;20040;-67
2022/07/24 01:45:26;;;;;;;17.40;11.18;;;;;;;20.35;80.33;99158.50;5091306;28;20046;-66
2022/07/24 01:47:52;;;;;;;14.00;10.10;;;;;;;20.34;80.46;99161.25;5101685;28;20036;-67
2022/07/24 01:50:20;;;;;;;19.52;11.10;;;;;;;20.23;80.61;99144.47;5090856;28;20093;-66
2022/07/24 01:52:45;;;;;;;18.23;10.82;;;;;;;20.33;80.72;99163.06;5090985;28;20028;-65
2022/07/24 01:55:11;;;;;;;20.05;10.77;;;;;;;20.31;80.62;99159.69;5090916;28;20072;-66
2022/07/24 01:57:37;;;;;;;19.58;11.75;;;;;;;20.30;80.46;99160.63;5089273;28;20450;-66
2022/07/24 02:00:05;;;;;;;22.58;12.65;;;;;;;20.26;80.54;99156.56;5090793;28;20400;-65
2022/07/24 02:02:41;;;;;;;22.70;12.45;;;;;;;20.30;80.52;99160.63;5090632;28;20040;-66
2022/07/24 02:05:07;;;;;;;17.70;11.57;;;;;;;20.30;80.55;99161.47;5090876;28;20044;-65
2022/07/24 02:07:33;;;;;;;24.48;13.38;;;;;;;20.29;80.46;99162.44;5089506;28;20038;-65
2022/07/24 02:09:59;;;;;;;19.90;12.77;;;;;;;20.29;80.17;99162.44;5089106;28;20134;-66
2022/07/24 02:12:25;;;;;;;21.10;12.40;;;;;;;20.32;79.91;99173.72;5090637;28;20139;-66
2022/07/24 02:15:11;;;;;;;24.83;12.85;;;;;;;20.32;79.81;99164.00;5090183;28;20057;-66
2022/07/24 02:17:36;;;;;;;21.98;12.65;;;;;;;20.37;79.44;99169.75;5100509;28;20046;-66
2022/07/24 02:20:03;;;;;;;19.20;12.80;;;;;;;20.39;79.39;99169.63;5090332;28;20040;-65
2022/07/24 02:22:29;;;;;;;19.52;11.75;;;;;;;20.39;79.61;99165.19;5090270;28;20050;-67
2022/07/24 02:24:55;;;;;;;26.58;12.50;;;;;;;20.41;79.75;99167.72;5090609;28;20116;-66
2022/07/24 02:27:21;;;;;;;19.27;11.90;;;;;;;20.45;79.86;99163.84;5087320;28;20047;-67
2022/07/24 02:29:47;;;;;;;20.42;12.10;;;;;;;20.37;79.73;99145.13;5090328;28;20047;-68
2022/07/24 02:32:13;;;;;;;29.15;12.23;;;;;;;20.55;79.41;99165.59;5072293;28;20504;-66
2022/07/24 02:34:38;;;;;;;21.33;12.13;;;;;;;20.58;79.12;99170.59;5089291;28;20043;-66
2022/07/24 02:37:04;;;;;;;21.05;12.25;;;;;;;20.56;79.21;99169.06;5096796;28;20074;-66
2022/07/24 02:39:30;;;;;;;23.17;12.05;;;;;;;20.58;79.35;99169.75;5089935;28;20052;-66
2022/07/24 02:41:56;;;;;;;26.60;12.25;;;;;;;20.59;79.54;99167.00;5088785;28;20085;-65
2022/07/24 02:44:22;;;;;;;20.98;11.70;;;;;;;20.55;79.22;99152.38;5090323;28;20051;-66
2022/07/24 02:46:48;;;;;;;17.95;12.02;;;;;;;20.72;78.42;99161.53;5097183;28;20107;-65
2022/07/24 02:49:14;;;;;;;17.63;11.70;;;;;;;20.77;77.70;99164.63;5090953;28;20091;-65
2022/07/24 02:51:40;;;;;;;20.30;11.90;;;;;;;20.79;77.49;99162.69;5091874;28;20154;-65
2022/07/24 02:54:06;;;;;;;17.52;11.77;;;;;;;20.77;77.68;99163.78;5094246;28;20074;-66
2022/07/24 02:56:31;;;;;;;24.15;13.20;;;;;;;20.78;77.74;99165.47;5094274;28;20068;-66
2022/07/24 02:58:57;;;;;;;20.02;11.45;;;;;;;20.82;77.61;99166.88;5094213;28;20519;-66
2022/07/24 03:01:24;;;;;;;18.67;11.43;;;;;;;20.67;77.08;99138.13;5094378;28;20457;-65
2022/07/24 03:03:50;;;;;;;19.17;10.93;;;;;;;20.88;76.93;99155.78;5093171;28;20040;-66
2022/07/24 03:06:16;;;;;;;17.75;10.93;;;;;;;20.88;76.38;99158.44;5093328;28;20510;-65
2022/07/24 03:08:42;;;;;;;17.50;10.75;;;;;;;20.89;76.37;99157.44;5092263;28;20044;-62
2022/07/24 03:11:07;;;;;;;18.90;10.57;;;;;;;20.90;75.69;99148.56;5094001;28;20044;-64
2022/07/24 03:13:33;;;;;;;17.40;10.80;;;;;;;20.93;75.68;99146.50;5075822;28;20135;-67
2022/07/24 03:15:59;;;;;;;18.00;11.30;;;;;;;20.94;75.66;99150.81;5094014;28;20085;-67
2022/07/24 03:18:25;;;;;;;21.50;11.48;;;;;;;20.85;75.62;99127.81;5104313;28;20044;-67
2022/07/24 03:20:50;;;;;;;15.38;10.88;;;;;;;20.98;75.67;99146.13;5094127;28;20519;-66
2022/07/24 03:23:17;;;;;;;18.15;10.98;;;;;;;20.97;75.93;99145.28;5075855;28;20036;-67
2022/07/24 03:25:43;;;;;;;19.50;11.52;;;;;;;20.96;76.26;99146.22;5093675;28;20067;-66
2022/07/24 03:28:09;;;;;;;25.70;10.63;;;;;;;20.98;75.83;99146.13;5093751;28;20095;-66
2022/07/24 03:30:36;;;;;;;17.90;11.05;;;;;;;21.01;75.09;99145.84;5094019;28;20086;-66
2022/07/24 03:33:01;;;;;;;17.55;11.02;;;;;;;21.01;74.69;99136.09;5093278;28;20028;-66
2022/07/24 03:35:27;;;;;;;15.48;10.35;;;;;;;21.07;74.53;99148.78;5093823;28;20454;-67
2022/07/24 03:37:53;;;;;;;16.15;10.38;;;;;;;21.11;74.54;99150.19;5104561;28;20039;-67
2022/07/24 03:40:19;;;;;;;17.45;10.07;;;;;;;21.13;74.12;99144.78;5095759;28;20499;-66
2022/07/24 03:42:48;;;;;;;15.23;9.70;;;;;;;21.17;73.40;99140.94;5098695;28;20052;-67
2022/07/24 03:45:15;;;;;;;20.13;10.30;;;;;;;21.23;73.48;99144.84;5084082;28;20044;-65
2022/07/24 03:47:40;;;;;;;19.40;9.82;;;;;;;21.25;73.12;99146.38;5092593;28;20048;-67
2022/07/24 03:50:06;;;;;;;14.85;9.15;;;;;;;21.14;72.69;99118.22;5092013;28;20052;-68
2022/07/24 03:52:32;;;;;;;13.52;9.02;;;;;;;21.36;72.68;99141.00;5091930;28;20032;-67
2022/07/24 03:54:58;;;;;;;13.00;9.15;;;;;;;21.36;72.10;99143.66;5093202;28;20040;-66
2022/07/24 03:57:24;;;;;;;16.77;9.20;;;;;;;21.44;71.82;99141.19;5099370;28;20422;-67
2022/07/24 03:59:50;;;;;;;12.88;9.35;;;;;;;21.48;71.50;99139.09;5112339;28;20039;-68
2022/07/24 04:02:15;;;;;;;13.65;8.90;;;;;;;21.53;71.16;99135.06;5108378;28;20063;-64
2022/07/24 04:04:41;;;;;;;16.48;8.35;;;;;;;21.54;70.60;99130.63;5095439;28;20051;-68
2022/07/24 04:07:07;;;;;;;12.85;7.82;;;;;;;21.66;70.32;99141.94;5095506;28;20507;-66
2022/07/24 04:09:33;;;;;;;11.75;7.63;;;;;;;21.54;69.73;99112.09;5093286;28;20100;-67
2022/07/24 04:11:59;;;;;;;13.90;8.25;;;;;;;21.75;69.05;99136.66;5091699;28;20070;-66
2022/07/24 04:14:25;;;;;;;18.10;7.97;;;;;;;21.80;68.89;99137.09;5092823;28;20385;-65
2022/07/24 04:16:51;;;;;;;11.80;7.93;;;;;;;21.88;68.50;99146.97;5093166;28;20043;-65
2022/07/24 04:19:17;;;;;;;11.65;7.85;;;;;;;21.90;68.36;99143.22;5092609;28;20431;-65
2022/07/24 04:21:42;;;;;;;13.07;7.90;;;;;;;21.93;67.80;99137.66;5092154;28;20032;-65
2022/07/24 04:24:08;;;;;;;13.57;8.70;;;;;;;22.02;67.48;99143.16;5074646;28;20047;-66
2022/07/24 04:26:34;;;;;;;14.82;7.97;;;;;;;22.07;67.38;99144.41;5086370;28;20066;-66
2022/07/24 04:29:00;;;;;;;11.95;7.75;;;;;;;22.12;67.32;99149.28;5091511;28;20043;-66
2022/07/24 04:31:26;;;;;;;11.63;7.40;;;;;;;22.07;66.82;99128.53;5091031;28;20092;-65
2022/07/24 04:33:52;;;;;;;12.40;7.88;;;;;;;22.25;66.79;99149.81;5102505;28;20028;-65
2022/07/24 04:36:18;;;;;;;11.73;8.65;;;;;;;22.33;66.64;99142.03;5092525;28;20468;-65
2022/07/24 04:38:43;;;;;;;15.93;7.90;;;;;;;22.37;66.42;99146.91;5092562;28;20043;-66
2022/07/24 04:41:09;;;;;;;10.68;8.35;;;;;;;22.43;66.25;99139.38;5092550;28;20044;-66
2022/07/24 04:43:35;;;;;;;15.50;8.68;;;;;;;22.48;65.80;99153.88;5090628;28;20047;-66
2022/07/24 04:46:01;;;;;;;11.50;7.63;;;;;;;22.52;65.75;99149.97;5092323;28;20040;-66
2022/07/24 04:48:27;;;;;;;11.02;8.13;;;;;;;22.58;65.46;99140.59;5091917;28;20044;-66
2022/07/24 04:50:53;;;;;;;13.38;8.90;;;;;;;22.66;65.65;99141.56;5091948;28;20122;-66
2022/07/24 04:53:19;;;;;;;12.68;8.48;;;;;;;22.73;65.29;99147.16;5092156;28;20032;-66
2022/07/24 04:55:47;;;;;;;11.35;8.50;;;;;;;22.77;65.61;99136.13;5092296;28;20051;-66
2022/07/24 04:58:13;;;;;;;11.65;7.65;;;;;;;22.89;65.47;99146.56;5073344;28;20086;-65
2022/07/24 05:00:38;;;;;;;10.95;7.88;;;;;;;22.99;65.03;99150.03;5091852;28;20077;-65
2022/07/24 05:03:04;;;;;;;14.45;9.48;;;;;;;23.07;64.75;99150.16;5091460;28;20112;-66
2022/07/24 05:05:30;;;;;;;11.35;8.23;;;;;;;23.11;64.56;99151.53;5091494;28;20579;-66
2022/07/24 05:07:56;;;;;;;13.60;8.07;;;;;;;23.17;64.40;99146.50;5091552;28;20426;-65
2022/07/24 05:10:21;;;;;;;14.38;8.32;;;;;;;23.22;64.12;99143.41;5091799;28;20063;-65
2022/07/24 05:12:47;;;;;;;9.52;7.28;;;;;;;23.30;63.66;99145.31;5091652;28;20043;-65
2022/07/24 05:15:13;;;;;;;12.25;7.65;;;;;;;23.37;63.17;99138.44;5091178;28;20063;-66
2022/07/24 05:17:39;;;;;;;11.63;7.40;;;;;;;23.39;62.34;99133.84;5092455;28;20032;-67
2022/07/24 05:20:05;;;;;;;10.07;7.93;;;;;;;23.42;61.84;99131.72;5109493;28;20126;-66
2022/07/24 05:22:31;;;;;;;11.40;7.28;;;;;;;23.55;61.86;99132.22;5098261;28;20047;-66
2022/07/24 05:24:57;;;;;;;11.80;6.70;;;;;;;23.64;61.55;99139.31;5091561;28;20130;-66
2022/07/24 05:27:23;;;;;;;12.75;7.25;;;;;;;23.71;60.86;99133.41;5082293;28;20174;-67
2022/07/24 05:29:48;;;;;;;10.63;6.35;;;;;;;23.79;60.41;99133.50;5091224;28;20067;-66
2022/07/24 05:32:14;;;;;;;10.48;6.28;;;;;;;23.87;59.92;99126.44;5091726;28;20039;-67
2022/07/24 05:34:40;;;;;;;8.68;6.28;;;;;;;23.98;59.64;99123.56;5091028;28;20043;-66
2022/07/24 05:37:06;;;;;;;9.45;5.93;;;;;;;24.03;58.43;99115.16;5092945;28;20046;-67
2022/07/24 05:39:32;;;;;;;8.18;5.57;;;;;;;24.16;57.61;99130.72;5091099;28;20117;-65
2022/07/24 05:41:58;;;;;;;6.60;4.72;;;;;;;24.23;56.82;99118.53;5091025;28;20043;-66
2022/07/24 05:44:24;;;;;;;9.70;5.13;;;;;;;24.32;56.37;99123.75;5090509;28;20185;-67
2022/07/24 05:46:49;;;;;;;5.15;4.65;;;;;;;24.43;56.16;99125.34;5091328;28;20125;-66
2022/07/24 05:49:15;;;;;;;6.80;4.68;;;;;;;24.57;55.78;99130.09;5095064;28;20122;-66
2022/07/24 05:51:41;;;;;;;8.13;5.00;;;;;;;24.67;55.49;99119.34;5099324;28;20561;-66
2022/07/24 05:54:07;;;;;;;6.80;4.50;;;;;;;24.76;54.95;99118.41;5091018;28;20404;-64
2022/07/24 05:56:33;;;;;;;7.70;4.90;;;;;;;24.88;54.66;99120.69;5090328;28;20527;-65
2022/07/24 05:58:58;;;;;;;6.38;4.38;;;;;;;25.01;54.47;99112.31;5091680;28;20556;-67
2022/07/24 06:01:24;;;;;;;6.97;4.63;;;;;;;25.06;53.58;99110.00;5089687;28;20048;-67
2022/07/24 06:03:50;;;;;;;9.77;4.30;;;;;;;25.18;53.66;99115.84;5090972;28;20048;-66
2022/07/24 06:06:16;;;;;;;5.50;3.55;;;;;;;25.30;53.20;99118.09;5091027;28;20044;-66
2022/07/24 06:08:42;;;;;;;5.05;3.60;;;;;;;25.39;51.56;99115.44;5105091;28;20414;-66
2022/07/24 06:11:09;;;;;;;7.47;4.18;;;;;;;25.38;51.35;99101.34;5100261;28;20105;-66
2022/07/24 06:13:35;;;;;;;8.32;4.20;;;;;;;25.49;51.76;99110.84;5074911;28;20780;-65
2022/07/24 06:16:00;;;;;;;6.95;4.05;;;;;;;25.61;51.09;99106.91;5069315;28;20048;-66
2022/07/24 06:18:26;;;;;;;6.45;3.65;;;;;;;25.66;50.43;99109.91;5095510;28;20035;-66
2022/07/24 06:20:52;;;;;;;9.45;4.10;;;;;;;25.78;50.39;99108.63;5102082;28;20071;-67
2022/07/24 06:23:18;;;;;;;5.72;3.83;;;;;;;25.84;50.38;99089.34;5090434;28;20055;-64
2022/07/24 06:25:43;;;;;;;5.80;3.60;;;;;;;25.89;49.52;99068.38;5086890;28;20048;-64
2022/07/24 06:28:09;;;;;;;5.10;4.00;;;;;;;26.32;49.03;99104.56;5084590;28;20040;-66
2022/07/24 06:30:35;;;;;;;4.95;2.90;;;;;;;26.56;47.91;99104.53;5084649;28;20082;-64
2022/07/24 06:33:01;;;;;;;2.90;2.60;;;;;;;26.69;46.36;99109.38;5083445;28;20028;-65
2022/07/24 06:35:28;;;;;;;4.78;3.15;;;;;;;26.85;45.86;99082.63;5086772;28;20499;-63
2022/07/24 06:37:55;;;;;;;5.20;3.50;;;;;;;27.32;44.96;99103.22;5087928;28;20047;-63
2022/07/24 06:40:21;;;;;;;4.50;3.50;;;;;;;27.87;44.18;99105.78;5087794;28;20138;-65
2022/07/24 06:42:47;;;;;;;3.78;3.17;;;;;;;28.64;43.23;99102.00;5088643;28;20123;-63
2022/07/24 06:45:13;;;;;;;2.85;2.65;;;;;;;29.04;41.06;99099.97;5088809;28;20060;-64
2022/07/24 06:47:40;;;;;;;3.45;3.15;;;;;;;29.70;39.99;99098.13;5088540;28;20471;-64
2022/07/24 06:50:06;;;;;;;3.95;3.13;;;;;;;30.64;39.20;99097.00;5089204;28;20443;-65
2022/07/24 06:52:32;;;;;;;4.78;2.75;;;;;;;31.58;37.46;99092.81;5088377;28;20090;-64
2022/07/24 06:54:58;;;;;;;4.22;3.00;;;;;;;32.66;35.78;99072.94;5087679;28;20063;-62
2022/07/24 06:57:25;;;;;;;4.05;2.60;;;;;;;33.54;34.24;99068.75;5088528;28;20039;-63
2022/07/24 06:59:53;;;;;;;2.97;2.78;;;;;;;34.65;32.75;99080.63;5088753;28;20036;-64
2022/07/24 07:02:20;;;;;;;2.78;2.53;;;;;;;35.60;30.61;99094.59;5086274;28;20432;-65
2022/07/24 07:04:46;;;;;;;3.00;2.70;;;;;;;35.56;29.06;99086.13;5087569;28;20047;-67
2022/07/24 07:07:14;;;;;;;4.88;2.75;;;;;;;36.26;28.75;99081.00;5090151;28;20048;-67
2022/07/24 07:09:39;;;;;;;3.35;3.10;;;;;;;36.87;27.49;99068.91;5088501;28;20524;-65
2022/07/24 07:12:06;;;;;;;3.25;2.80;;;;;;;36.38;27.26;99084.53;5088255;28;20055;-65
2022/07/24 07:14:31;;;;;;;3.67;3.38;;;;;;;36.44;27.57;99088.19;5087931;28;20040;-64
2022/07/24 07:16:57;;;;;;;5.07;3.38;;;;;;;36.91;26.96;99086.34;5087977;28;20435;-65
2022/07/24 07:19:23;;;;;;;4.60;2.97;;;;;;;38.42;25.24;99076.84;5088372;28;20520;-65
2022/07/24 07:21:49;;;;;;;4.20;3.10;;;;;;;39.14;24.23;99083.09;5087859;28;20055;-65
2022/07/24 07:24:15;;;;;;;3.47;3.17;;;;;;;38.94;24.26;99083.63;5073542;28;20051;-65
2022/07/24 07:26:41;;;;;;;3.42;3.22;;;;;;;39.36;23.34;99085.88;5084458;28;20135;-65
2022/07/24 07:29:07;;;;;;;5.30;3.10;;;;;;;39.60;23.77;99073.63;5089433;28;20130;-64
2022/07/24 07:31:34;;;;;;;3.92;3.47;;;;;;;40.71;22.23;99043.03;5088959;28;20123;-65
2022/07/24 07:34:00;;;;;;;3.78;3.05;;;;;;;41.85;21.67;99079.25;5095366;28;20478;-63
2022/07/24 07:36:26;;;;;;;3.53;3.33;;;;;;;42.00;20.50;99080.38;5087083;28;20035;-65
2022/07/24 07:38:51;;;;;;;3.30;3.10;;;;;;;41.47;21.09;99071.50;5088807;28;20126;-64
2022/07/24 07:41:20;;;;;;;3.45;3.22;;;;;;;41.58;20.37;99056.81;5090539;28;20043;-65
2022/07/24 07:43:49;;;;;;;8.30;3.70;;;;;;;41.24;20.96;99071.97;5087280;28;20044;-65
2022/07/24 07:46:15;;;;;;;3.63;3.33;;;;;;;41.23;20.89;99065.69;5091070;28;20063;-64
2022/07/24 07:48:41;;;;;;;5.32;3.58;;;;;;;40.71;20.28;99068.41;5057057;28;20109;-64
2022/07/24 07:51:07;;;;;;;3.40;3.10;;;;;;;40.61;20.86;99068.28;5094014;28;20044;-64
2022/07/24 07:53:33;;;;;;;3.35;2.95;;;;;;;40.24;21.01;99042.94;5095439;28;20036;-64
2022/07/24 07:55:59;;;;;;;3.13;2.83;;;;;;;39.74;21.57;99039.47;5091288;28;20084;-64
2022/07/24 07:58:26;;;;;;;3.08;2.88;;;;;;;39.78;21.48;99048.78;5094123;28;20047;-63
2022/07/24 08:00:53;;;;;;;3.10;2.70;;;;;;;41.18;21.39;99053.94;5091450;28;20572;-64
2022/07/24 08:03:19;;;;;;;3.22;2.97;;;;;;;41.66;19.70;99060.94;5090376;28;20064;-46
2022/07/24 08:05:45;;;;;;;3.22;3.03;;;;;;;40.25;20.91;99031.81;5100478;28;20085;-49
2022/07/24 08:08:11;;;;;;;3.90;2.88;;;;;;;40.05;20.60;99059.66;5093176;28;20498;-47
2022/07/24 08:10:37;;;;;;;3.15;2.88;;;;;;;39.94;20.97;99047.00;5091900;28;20579;-48
2022/07/24 08:13:03;;;;;;;3.30;3.10;;;;;;;40.93;20.46;99044.50;5092770;28;20040;-45
2022/07/24 08:15:29;;;;;;;2.97;2.78;;;;;;;40.15;20.24;99054.28;5092252;28;20396;-50
2022/07/24 08:17:56;;;;;;;3.05;2.85;;;;;;;40.41;20.81;99049.09;5091311;28;20058;-47
2022/07/24 08:20:24;;;;;;;4.65;2.90;;;;;;;40.58;20.12;99047.00;5090919;28;20115;-42
2022/07/24 08:22:51;;;;;;;3.70;2.58;;;;;;;41.44;19.36;99042.00;5091671;28;20036;-45
2022/07/24 08:25:17;;;;;;;3.13;2.90;;;;;;;41.25;19.18;99036.19;5074526;28;20078;-44
2022/07/24 08:27:43;;;;;;;3.25;2.70;;;;;;;41.42;19.32;99044.16;5090289;28;20048;-46
2022/07/24 08:30:10;;;;;;;3.47;3.17;;;;;;;41.89;18.66;99043.22;5090645;28;20044;-43
2022/07/24 08:32:36;;;;;;;3.22;3.03;;;;;;;41.84;18.46;99033.09;5092585;28;20047;-47
2022/07/24 08:35:02;;;;;;;3.58;3.28;;;;;;;41.90;18.63;99036.69;5092273;28;20036;-46
2022/07/24 08:37:29;;;;;;;3.30;3.10;;;;;;;42.90;17.61;99029.47;5092299;28;20067;-45
2022/07/24 08:39:55;;;;;;;3.80;3.45;;;;;;;43.14;17.46;99033.22;5091691;28;20133;-45
2022/07/24 08:42:21;;;;;;;3.88;3.58;;;;;;;42.68;18.30;99033.38;5090462;28;20244;-45
2022/07/24 08:44:47;;;;;;;3.80;3.35;;;;;;;42.41;18.53;99027.38;5090818;28;20100;-45
2022/07/24 08:47:19;;;;;;;5.20;3.40;;;;;;;43.28;17.70;99008.81;5091057;28;20050;-44
2022/07/24 08:50:07;;;;;;;3.88;3.58;;;;;;;43.70;17.43;99025.56;5075396;28;20048;-47
2022/07/24 08:52:35;;;;;;;4.77;3.80;;;;;;;42.67;18.13;99009.00;5090835;28;20556;-46
2022/07/24 08:55:01;;;;;;;3.80;3.50;;;;;;;42.74;18.79;99020.50;5092026;28;20371;-43
2022/07/24 08:57:29;;;;;;;3.72;3.53;;;;;;;42.78;18.67;99012.56;5091328;28;20519;-47
2022/07/24 08:59:54;;;;;;;4.00;3.75;;;;;;;43.05;18.22;99002.88;5090479;28;20040;-46
2022/07/24 09:02:21;;;;;;;5.15;3.70;;;;;;;42.94;18.41;99009.50;5090042;28;20040;-47
2022/07/24 09:04:48;;;;;;;4.72;3.78;;;;;;;43.22;17.41;99021.72;5092044;28;20040;-48
2022/07/24 09:07:16;;;;;;;4.85;3.88;;;;;;;42.76;17.97;99012.03;5069587;28;20154;-43
2022/07/24 09:09:43;;;;;;;4.00;3.60;;;;;;;42.74;18.42;98987.69;5083777;28;20138;-47
2022/07/24 09:12:14;;;;;;;4.25;3.92;;;;;;;43.99;17.44;98995.50;5091937;28;20035;-44
2022/07/24 09:14:46;;;;;;;4.13;3.83;;;;;;;43.85;17.52;99014.50;5090518;28;20043;-45
2022/07/24 09:17:14;;;;;;;5.03;3.83;;;;;;;44.15;17.46;99010.69;5069926;28;20048;-48
2022/07/24 09:19:57;;;;;;;4.47;4.18;;;;;;;42.41;18.49;98994.59;5071443;28;20091;-44
2022/07/24 09:22:35;;;;;;;4.45;4.07;;;;;;;43.01;18.44;99001.00;5071453;28;20041;-51
2022/07/24 09:25:08;;;;;;;4.47;4.18;;;;;;;43.78;17.62;99010.44;5071522;28;20044;-46
2022/07/24 09:27:36;;;;;;;4.70;4.35;;;;;;;43.28;18.18;99014.31;5075059;28;20188;-46
2022/07/24 09:30:06;;;;;;;4.70;4.28;;;;;;;42.40;18.95;99003.09;5101477;28;20446;-48
2022/07/24 09:32:31;;;;;;;6.10;4.32;;;;;;;42.57;19.44;98998.09;5095366;28;20504;-48
2022/07/24 09:34:57;;;;;;;4.78;4.38;;;;;;;43.52;18.23;99000.75;5089717;28;20043;-49
2022/07/24 09:37:26;;;;;;;4.95;4.53;;;;;;;43.96;17.55;99003.47;5090370;28;20051;-47
2022/07/24 09:39:52;;;;;;;4.70;4.30;;;;;;;43.54;17.74;98999.38;5091133;28;20079;-52
2022/07/24 09:42:18;;;;;;;5.32;3.40;;;;;;;43.76;17.75;98998.97;5091263;28;20063;-50
2022/07/24 09:44:45;;;;;;;5.35;4.03;;;;;;;42.21;19.12;99000.88;5089183;28;20507;-46
2022/07/24 09:47:12;;;;;;;4.50;4.20;;;;;;;42.07;18.97;98997.06;5090720;28;20046;-46
2022/07/24 09:49:39;;;;;;;4.13;3.70;;;;;;;41.84;19.46;99001.13;5090528;28;20050;-45
2022/07/24 09:52:05;;;;;;;4.53;3.95;;;;;;;42.75;18.90;98996.72;5089456;28;20048;-48
2022/07/24 09:54:34;;;;;;;4.45;4.05;;;;;;;43.62;18.00;98995.22;5091034;28;20042;-42
2022/07/24 09:57:25;;;;;;;4.40;4.10;;;;;;;44.22;17.54;99000.22;5088091;28;20050;-47
2022/07/24 09:59:59;;;;;;;4.88;4.30;;;;;;;44.07;17.06;98994.88;5089813;28;20086;-47
2022/07/24 10:02:28;;;;;;;4.25;3.95;;;;;;;44.34;16.55;99002.56;5085941;28;20070;-49
2022/07/24 10:04:55;;;;;;;4.50;4.10;;;;;;;43.65;17.28;99006.44;5088443;28;20130;-49
2022/07/24 10:07:22;;;;;;;5.60;4.13;;;;;;;43.53;17.56;98988.72;5081833;28;20045;-50
2022/07/24 10:09:52;;;;;;;4.47;4.20;;;;;;;42.98;17.95;98993.31;5081225;28;20587;-47
2022/07/24 10:12:21;;;;;;;4.55;4.20;;;;;;;42.85;18.18;98992.03;5083044;28;20122;-47
2022/07/24 10:14:50;;;;;;;3.92;3.72;;;;;;;43.70;17.89;98972.72;5079171;28;20031;-48
2022/07/24 10:17:17;;;;;;;4.07;3.78;;;;;;;44.34;17.34;98988.88;5086530;28;20561;-50
2022/07/24 10:19:47;;;;;;;4.40;4.10;;;;;;;44.67;16.92;98993.47;5088764;28;20039;-50
2022/07/24 10:22:16;;;;;;;8.13;4.00;;;;;;;44.77;16.58;98980.75;5086043;28;20040;-47
2022/07/24 10:24:47;;;;;;;5.00;4.60;;;;;;;45.65;16.02;98986.41;5092360;28;20065;-49
2022/07/24 10:27:22;;;;;;;4.78;4.47;;;;;;;46.14;15.49;98985.88;5089394;28;20066;-47
2022/07/24 10:29:48;;;;;;;4.50;4.30;;;;;;;45.91;15.66;98978.59;5083182;28;20511;-50
2022/07/24 10:32:14;;;;;;;5.85;4.30;;;;;;;46.52;15.90;98967.31;5084017;28;20032;-48
2022/07/24 10:34:52;;;;;;;5.90;5.00;;;;;;;47.44;15.00;98967.03;5087232;28;20084;-47
2022/07/24 10:37:23;;;;;;;6.18;4.60;;;;;;;48.07;14.90;98968.00;5088453;28;20043;-48
2022/07/24 10:39:49;;;;;;;4.63;4.32;;;;;;;48.05;13.97;98960.06;5084766;28;20419;-49
2022/07/24 10:42:15;;;;;;;4.72;4.43;;;;;;;46.29;14.97;98966.38;5082809;28;20105;-47
2022/07/24 10:44:41;;;;;;;4.25;3.95;;;;;;;46.01;15.12;98958.38;5087422;28;20032;-49
2022/07/24 10:47:10;;;;;;;4.45;4.10;;;;;;;45.50;15.14;98953.69;5084199;28;20052;-52
2022/07/24 10:49:38;;;;;;;4.47;4.18;;;;;;;45.29;15.42;98958.66;5086629;28;20032;-47
2022/07/24 10:52:04;;;;;;;5.13;4.63;;;;;;;44.63;15.84;98951.25;5088209;28;20051;-47
2022/07/24 10:54:29;;;;;;;4.45;4.15;;;;;;;44.94;16.12;98946.22;5089029;28;20040;-48
2022/07/24 10:56:55;;;;;;;4.78;4.38;;;;;;;46.14;15.16;98944.66;5087511;28;20136;-48
2022/07/24 10:59:41;;;;;;;4.65;4.20;;;;;;;46.18;15.11;98934.69;5087746;28;20072;-51
2022/07/24 11:02:28;;;;;;;4.63;4.22;;;;;;;45.23;15.31;98937.88;5076417;28;20040;-47
2022/07/24 11:05:25;;;;;;;5.90;4.05;;;;;;;44.61;15.52;98936.19;5084110;28;20051;-47
2022/07/24 11:08:16;;;;;;;4.32;3.20;;;;;;;45.40;15.27;98929.09;5080875;28;20040;-51
2022/07/24 11:10:49;;;;;;;3.60;3.30;;;;;;;45.92;15.53;98939.81;5083945;28;20467;-46
2022/07/24 11:13:33;;;;;;;6.18;4.25;;;;;;;45.38;15.32;98936.84;5087282;28;20044;-48
2022/07/24 11:16:14;;;;;;;5.22;4.00;;;;;;;44.01;16.20;98926.72;5078288;28;20122;-50
2022/07/24 11:18:50;;;;;;;4.25;3.70;;;;;;;42.90;17.04;98933.75;5083300;28;20419;-49
2022/07/24 11:21:44;;;;;;;3.75;3.50;;;;;;;42.09;17.46;98907.44;5081653;28;20047;-47
2022/07/24 11:24:17;;;;;;;4.03;3.72;;;;;;;42.44;17.73;98906.56;5081492;28;20036;-53
2022/07/24 11:26:45;;;;;;;3.95;3.50;;;;;;;43.10;17.17;98903.56;5072534;28;20040;-47